Big Bear Station Historical Data
Daily Summary for July 26, 2017 Units:  English    Metric   Both
« Previous Day
Next Day »
Daily Weekly Monthly Yearly Custom
  High: Low: Average:
Temperature: 82.8 °F 54.1 °F 67.1 °F
Dew Point: 59.1 °F 51.6 °F 55.4 °F
Humidity: 94 % 38 % 69 %
Wind Speed: 8.3 mph 0.0 mph 2 mph
Wind Gust: -999.0 mph - -
Wind:- - West
Pressure: 30.33 in 30.29 in -
Precipitation: 0.00 in    
Historical Graphs
 
 
Tabular Data for July 26, 2017
Time Temperature Dew Point Pressure Wind Wind Speed Wind Gust Humidity Rainfall Rate (Hourly)
00:09 58.8 °F 53.3 °F 30.30 in South 2.2 mph -999.0 mph 82 % 0 in
00:25 58.3 °F 53.2 °F 30.30 in SSE 1.7 mph -999.0 mph 83 % 0 in
00:40 57.7 °F 52.9 °F 30.30 in South 1.7 mph -999.0 mph 84 % 0 in
00:55 57.4 °F 52.6 °F 30.30 in Calm   -999.0 mph 84 % 0 in
01:10 57.2 °F 53.1 °F 30.30 in Calm   -999.0 mph 86 % 0 in
01:25 57.0 °F 52.9 °F 30.30 in Calm   -999.0 mph 86 % 0 in
01:41 56.7 °F 52.6 °F 30.31 in Calm   -999.0 mph 86 % 0 in
01:56 56.5 °F 52.7 °F 30.30 in Calm   -999.0 mph 87 % 0 in
02:11 56.3 °F 52.5 °F 30.31 in South 1.7 mph -999.0 mph 87 % 0 in
02:26 56.3 °F 52.5 °F 30.31 in Calm   -999.0 mph 87 % 0 in
02:41 56.3 °F 52.8 °F 30.31 in Calm   -999.0 mph 88 % 0 in
02:57 56.5 °F 53.0 °F 30.30 in Calm   -999.0 mph 88 % 0 in
03:12 56.1 °F 53.2 °F 30.30 in Calm   -999.0 mph 90 % 0 in
03:27 55.9 °F 53.0 °F 30.30 in Calm   -999.0 mph 90 % 0 in
03:42 55.8 °F 53.2 °F 30.30 in Calm   -999.0 mph 91 % 0 in
03:58 55.6 °F 53.0 °F 30.30 in Calm   -999.0 mph 91 % 0 in
04:13 55.4 °F 53.1 °F 30.30 in Calm   -999.0 mph 92 % 0 in
04:28 55.4 °F 53.4 °F 30.30 in Calm   -999.0 mph 93 % 0 in
04:43 55.4 °F 53.4 °F 30.30 in Calm   -999.0 mph 93 % 0 in
04:58 55.4 °F 53.4 °F 30.30 in Calm   -999.0 mph 93 % 0 in
05:14 54.9 °F 52.9 °F 30.30 in Calm   -999.0 mph 93 % 0 in
05:29 54.7 °F 52.7 °F 30.30 in Calm   -999.0 mph 93 % 0 in
05:44 54.5 °F 52.5 °F 30.30 in Calm   -999.0 mph 93 % 0 in
05:59 54.5 °F 52.5 °F 30.31 in Calm   -999.0 mph 93 % 0 in
06:15 54.1 °F 52.1 °F 30.31 in Calm   -999.0 mph 93 % 0 in
06:30 54.3 °F 52.3 °F 30.31 in Calm   -999.0 mph 93 % 0 in
06:45 54.3 °F 52.3 °F 30.31 in Calm   -999.0 mph 93 % 0 in
07:01 54.7 °F 52.7 °F 30.31 in Calm   -999.0 mph 93 % 0 in
07:16 55.2 °F 53.2 °F 30.31 in Calm   -999.0 mph 93 % 0 in
07:31 55.6 °F 53.6 °F 30.32 in Calm   -999.0 mph 93 % 0 in
07:46 56.7 °F 54.7 °F 30.32 in Calm   -999.0 mph 93 % 0 in
08:01 57.7 °F 56.0 °F 30.32 in Calm   -999.0 mph 94 % 0 in
08:17 59.2 °F 57.2 °F 30.32 in Calm   -999.0 mph 93 % 0 in
08:32 61.3 °F 57.4 °F 30.32 in Calm   -999.0 mph 87 % 0 in
08:48 63.3 °F 58.0 °F 30.33 in NNE 2.2 mph -999.0 mph 83 % 0 in
09:03 66.0 °F 58.6 °F 30.33 in North 2.2 mph -999.0 mph 77 % 0 in
09:18 67.5 °F 58.9 °F 30.32 in NW 3.2 mph -999.0 mph 74 % 0 in
09:33 69.3 °F 58.7 °F 30.32 in West 4.2 mph -999.0 mph 69 % 0 in
09:49 70.7 °F 58.4 °F 30.32 in NW 3.7 mph -999.0 mph 65 % 0 in
10:04 70.9 °F 58.6 °F 30.32 in North 2.7 mph -999.0 mph 65 % 0 in
10:19 71.8 °F 57.6 °F 30.33 in NW 3.7 mph -999.0 mph 61 % 0 in
10:34 71.8 °F 57.6 °F 30.33 in NNW 3.7 mph -999.0 mph 61 % 0 in
10:49 71.6 °F 57.9 °F 30.33 in South 3.2 mph -999.0 mph 62 % 0 in
11:05 73.6 °F 58.9 °F 30.33 in NW 3.7 mph -999.0 mph 60 % 0 in
11:20 73.8 °F 58.1 °F 30.32 in West 2.2 mph -999.0 mph 58 % 0 in
11:36 75.2 °F 58.4 °F 30.32 in NNW 5.3 mph -999.0 mph 56 % 0 in
11:51 77.0 °F 58.6 °F 30.32 in North 4.7 mph -999.0 mph 53 % 0 in
12:06 77.7 °F 58.1 °F 30.33 in NNW 3.7 mph -999.0 mph 51 % 0 in
12:21 79.3 °F 59.1 °F 30.32 in NNW 4.7 mph -999.0 mph 50 % 0 in
12:37 79.9 °F 57.9 °F 30.32 in NNW 4.2 mph -999.0 mph 47 % 0 in
12:52 77.7 °F 56.5 °F 30.33 in North 2.7 mph -999.0 mph 48 % 0 in
13:07 75.4 °F 56.0 °F 30.32 in North 2.7 mph -999.0 mph 51 % 0 in
13:22 76.6 °F 56.0 °F 30.32 in WNW 1.7 mph -999.0 mph 49 % 0 in
13:38 81.1 °F 59.0 °F 30.32 in NNW 4.7 mph -999.0 mph 47 % 0 in
13:53 81.5 °F 56.9 °F 30.32 in NNW 4.7 mph -999.0 mph 43 % 0 in
14:08 82.4 °F 57.7 °F 30.32 in NNW 4.7 mph -999.0 mph 43 % 0 in
14:24 82.0 °F 56.7 °F 30.31 in NW 5.8 mph -999.0 mph 42 % 0 in
14:39 81.7 °F 55.0 °F 30.31 in WNW 5.3 mph -999.0 mph 40 % 0 in
14:54 81.9 °F 55.9 °F 30.31 in WNW 4.2 mph -999.0 mph 41 % 0 in
15:09 82.8 °F 54.6 °F 30.31 in North 3.7 mph -999.0 mph 38 % 0 in
15:25 82.6 °F 55.1 °F 30.31 in NW 8.3 mph -999.0 mph 39 % 0 in
15:40 81.0 °F 55.1 °F 30.30 in NNW 4.2 mph -999.0 mph 41 % 0 in
15:55 81.1 °F 55.8 °F 30.30 in WNW 3.2 mph -999.0 mph 42 % 0 in
16:10 79.9 °F 55.4 °F 30.30 in NW 3.7 mph -999.0 mph 43 % 0 in
16:26 81.5 °F 56.2 °F 30.30 in NNW 5.3 mph -999.0 mph 42 % 0 in
16:41 80.4 °F 57.1 °F 30.29 in North 3.7 mph -999.0 mph 45 % 0 in
16:56 81.7 °F 57.0 °F 30.29 in East 2.2 mph -999.0 mph 43 % 0 in
17:11 82.0 °F 56.7 °F 30.29 in SSW 2.7 mph -999.0 mph 42 % 0 in
17:26 82.6 °F 57.8 °F 30.29 in NW 3.7 mph -999.0 mph 43 % 0 in
17:42 81.5 °F 56.9 °F 30.29 in WNW 4.2 mph -999.0 mph 43 % 0 in
17:57 79.5 °F 56.9 °F 30.29 in South 4.2 mph -999.0 mph 46 % 0 in
18:12 78.6 °F 56.7 °F 30.29 in West 4.2 mph -999.0 mph 47 % 0 in
18:27 77.4 °F 57.9 °F 30.29 in NE 5.8 mph -999.0 mph 51 % 0 in
18:43 75.9 °F 58.1 °F 30.29 in NW 5.8 mph -999.0 mph 54 % 0 in
18:59 76.3 °F 57.9 °F 30.29 in WNW 4.7 mph -999.0 mph 53 % 0 in
19:14 73.9 °F 57.7 °F 30.29 in NW 2.7 mph -999.0 mph 57 % 0 in
19:29 70.5 °F 57.3 °F 30.29 in WNW 2.2 mph -999.0 mph 63 % 0 in
19:45 68.4 °F 57.4 °F 30.29 in NNW 1.7 mph -999.0 mph 68 % 0 in
20:00 67.1 °F 57.4 °F 30.30 in WSW 1.1 mph -999.0 mph 71 % 0 in
20:15 66.0 °F 56.3 °F 30.30 in NNW 2.2 mph -999.0 mph 71 % 0 in
20:30 65.3 °F 56.4 °F 30.30 in Calm   -999.0 mph 73 % 0 in
20:45 64.6 °F 55.0 °F 30.30 in Calm   -999.0 mph 71 % 0 in
21:01 64.0 °F 55.2 °F 30.30 in WNW 1.1 mph -999.0 mph 73 % 0 in
21:16 63.5 °F 54.7 °F 30.30 in Calm   -999.0 mph 73 % 0 in
21:31 63.1 °F 54.7 °F 30.31 in Calm   -999.0 mph 74 % 0 in
21:46 63.1 °F 54.3 °F 30.31 in Calm   -999.0 mph 73 % 0 in
22:01 62.8 °F 54.0 °F 30.31 in Calm   -999.0 mph 73 % 0 in
22:17 62.8 °F 53.6 °F 30.31 in Calm   -999.0 mph 72 % 0 in
22:32 62.8 °F 53.6 °F 30.31 in Calm   -999.0 mph 72 % 0 in
22:47 62.1 °F 53.3 °F 30.31 in South 2.7 mph -999.0 mph 73 % 0 in
23:02 61.9 °F 53.9 °F 30.31 in Calm   -999.0 mph 75 % 0 in
23:18 61.9 °F 53.5 °F 30.31 in South 1.7 mph -999.0 mph 74 % 0 in
23:33 61.5 °F 52.8 °F 30.31 in Calm   -999.0 mph 73 % 0 in
23:48 61.5 °F 51.6 °F 30.31 in South 1.7 mph -999.0 mph 70 % 0 in
Big Bear CA Weather
Compliments of Weather Underground - 1.5 mb